CST,Max TemperatureF,Mean TemperatureF,Min TemperatureF,Max Dew PointF,MeanDew PointF,Min DewpointF,Max Humidity, Mean Humidity, Min Humidity, Max Sea Level PressureIn, Mean Sea Level PressureIn, Min Sea Level PressureIn, Max VisibilityMiles, Mean VisibilityMiles, Min VisibilityMiles, Max Wind SpeedMPH, Mean Wind SpeedMPH, Max Gust SpeedMPH,PrecipitationIn, CloudCover, Events, WindDirDegrees
2012-11-1,80,66,52,58,55,52,100,68,36,30.09,30.03,29.98,10,7,0,9,2,17,0.00,0,Fog,340
2012-11-2,83,70,56,68,63,55,100,74,47,30.09,30.04,30.00,10,6,0,14,6,26,0.00,4,Fog,241
2012-11-3,83,70,56,66,60,55,100,72,43,30.15,30.09,30.04,10,5,0,13,4,17,0.00,2,Fog,230
2012-11-4,72,65,58,66,62,57,100,87,73,30.13,30.09,30.04,10,8,0,13,3,15,0.01,4,Fog-Rain-Thunderstorm,75
2012-11-5,74,64,53,63,58,52,100,82,64,30.08,30.01,29.91,10,8,2,15,4,22,0.00,2,Thunderstorm,120
2012-11-6,65,56,46,54,50,45,100,76,52,30.09,30.03,29.98,10,8,1,14,3,18,0.00,4,,359
2012-11-7,71,57,43,47,40,32,100,63,26,30.18,30.09,30.03,10,10,7,13,4,20,0.00,0,,326
2012-11-8,68,53,37,44,39,36,92,62,32,30.27,30.21,30.17,10,10,10,10,2,14,0.00,0,,76
2012-11-9,75,58,40,55,49,39,100,69,38,30.25,30.20,30.15,10,10,6,13,6,21,0.00,0,,117
2012-11-10,80,65,50,59,56,50,100,73,45,30.23,30.16,30.12,10,9,5,20,8,28,0.00,2,,104
2012-11-11,81,70,59,68,62,55,97,74,51,30.12,30.09,30.04,10,8,2,25,13,32,0.33,5,Rain,138
2012-11-12,70,56,42,68,54,35,97,73,48,30.40,30.22,30.08,10,9,1,21,7,33,0.42,6,Rain,3
2012-11-13,60,49,37,38,32,26,85,58,30,30.45,30.37,30.30,10,10,10,16,4,22,0.00,0,,28
2012-11-14,63,51,38,36,32,27,85,55,25,30.36,30.31,30.25,10,10,10,13,4,21,0.00,0,,6
2012-11-15,65,51,36,42,37,32,92,63,34,30.32,30.27,30.21,10,10,10,9,2,14,0.00,0,,24
2012-11-16,68,55,42,42,40,37,89,61,32,30.32,30.28,30.23,10,10,10,12,3,17,0.00,0,,29
2012-11-17,70,54,38,42,38,34,89,58,26,30.38,30.32,30.26,10,10,10,9,2,16,0.00,0,,40
2012-11-18,69,53,37,43,39,35,93,62,30,30.34,30.29,30.25,10,10,10,12,3,21,0.00,0,,61
2012-11-19,72,56,39,49,44,39,100,69,38,30.31,30.24,30.18,10,10,10,7,1,12,0.00,0,,65
2012-11-20,75,60,44,49,44,38,93,60,27,30.23,30.18,30.13,10,10,9,12,1,15,0.00,0,,342
2012-11-21,78,61,44,55,46,40,93,60,27,30.24,30.19,30.14,10,10,8,13,2,17,0.00,0,,340
2012-11-22,76,58,40,50,45,40,96,65,33,30.25,30.20,30.16,10,10,9,13,3,18,0.00,0,,166
2012-11-23,76,61,46,56,51,43,93,71,49,30.27,30.23,30.18,10,9,3,9,3,16,0.00,6,,336
2012-11-24,61,49,36,42,35,30,85,59,32,30.34,30.26,30.20,10,10,10,10,3,14,0.00,0,,14
2012-11-25,67,49,31,47,38,30,92,63,34,30.22,30.14,30.08,10,10,10,9,4,28,0.00,0,,124
2012-11-26,73,61,48,64,59,45,96,82,68,30.11,30.08,30.03,10,10,6,20,7,23,T,6,Rain,139
2012-11-27,66,56,46,64,56,45,100,93,86,30.33,30.17,30.04,10,6,1,14,6,26,0.45,7,Rain,351
2012-11-28,65,52,38,45,39,28,100,64,27,30.45,30.37,30.32,10,8,2,10,4,16,0.00,3,,39
2012-11-29,68,51,34,50,42,33,96,69,42,30.36,30.30,30.23,10,9,2,10,4,23,0.00,0,,98
2012-11-30,73,59,44,54,48,44,100,75,49,30.28,30.24,30.18,10,5,0,8,4,13,0.00,1,Fog,88